LDRI/RJK METAR and TAF weather

Enter ICAO airport designator
Station Type Date Time Source
LDRI METAR 2020/09/27 03:30 UTC NOAA

LDRI 270330Z 29008KT 260V330 9999 -RA SCT040 11/08 Q1005


Station Type Date Time Source
LDRI Decoded METAR 2020/09/27 03:30 UTC NOAA

Rijeka / Omisalj, Croatia (LDRI) 45-13N 014-35E
Sep 26, 2020 - 11:30 PM EDT / 2020.09.27 0330 UTC
Wind: from the WNW (290 degrees) at 9 MPH (8 KT) (direction variable):0
Visibility: greater than 7 mile(s):0
Sky conditions: partly cloudy
Weather: light rain
Temperature: 51 F (11 C)
Dew Point: 46 F (8 C)
Relative Humidity: 81%
Pressure (altimeter): 29.68 in. Hg (1005 hPa)
ob: LDRI 270330Z 29008KT 260V330 9999 -RA SCT040 11/08 Q1005
cycle: 3

Station Type Date Time Source
LDRI TAF 2020/09/26 18:27 UTC NOAA

TAF LDRI 261725Z 2618/2718 VRB02KT 9999 SCT020 TX17/2713Z TN10/2705Z PROB30
TEMPO 2704/2709 VRB15KT TSRA FEW030CB SCT040 PROB30
TEMPO 2712/2718 VRB15KT TSRA FEW040CB SCT045
BECMG 2716/2718 05015G25KT 4000 RA

Example: see airport list